sensor_id;sensor_type;location;lat;lon;timestamp;P1;durP1;ratioP1;P2;durP2;ratioP2
24090;SDS011;12272;52.426;17.100;2023-01-19T00:01:51;52.37;;;34.77;;
24090;SDS011;12272;52.426;17.100;2023-01-19T00:06:54;56.67;;;36.53;;
24090;SDS011;12272;52.426;17.100;2023-01-19T00:11:57;64.00;;;38.87;;
24090;SDS011;12272;52.426;17.100;2023-01-19T00:17:00;56.13;;;36.67;;
24090;SDS011;12272;52.426;17.100;2023-01-19T00:22:03;66.23;;;39.60;;
24090;SDS011;12272;52.426;17.100;2023-01-19T00:27:06;67.60;;;39.70;;
24090;SDS011;12272;52.426;17.100;2023-01-19T00:32:09;60.70;;;38.03;;
24090;SDS011;12272;52.426;17.100;2023-01-19T00:37:11;54.77;;;35.13;;
24090;SDS011;12272;52.426;17.100;2023-01-19T00:42:14;64.20;;;37.80;;
24090;SDS011;12272;52.426;17.100;2023-01-19T00:47:35;62.93;;;36.50;;
24090;SDS011;12272;52.426;17.100;2023-01-19T00:52:40;62.63;;;37.83;;
24090;SDS011;12272;52.426;17.100;2023-01-19T00:57:43;60.57;;;37.00;;
24090;SDS011;12272;52.426;17.100;2023-01-19T01:02:47;61.13;;;37.13;;
24090;SDS011;12272;52.426;17.100;2023-01-19T01:07:51;52.90;;;34.77;;
24090;SDS011;12272;52.426;17.100;2023-01-19T01:12:54;66.97;;;38.53;;
24090;SDS011;12272;52.426;17.100;2023-01-19T01:17:59;47.33;;;31.10;;
24090;SDS011;12272;52.426;17.100;2023-01-19T01:23:02;59.07;;;38.77;;
24090;SDS011;12272;52.426;17.100;2023-01-19T01:28:05;60.07;;;37.93;;
24090;SDS011;12272;52.426;17.100;2023-01-19T01:33:09;66.10;;;41.97;;
24090;SDS011;12272;52.426;17.100;2023-01-19T01:38:15;55.57;;;37.73;;
24090;SDS011;12272;52.426;17.100;2023-01-19T01:43:18;63.33;;;37.63;;
24090;SDS011;12272;52.426;17.100;2023-01-19T01:48:27;55.40;;;35.53;;
24090;SDS011;12272;52.426;17.100;2023-01-19T01:53:31;44.60;;;29.43;;
24090;SDS011;12272;52.426;17.100;2023-01-19T01:58:35;58.17;;;36.47;;
24090;SDS011;12272;52.426;17.100;2023-01-19T02:03:39;58.23;;;35.93;;
24090;SDS011;12272;52.426;17.100;2023-01-19T02:08:43;55.33;;;34.17;;
24090;SDS011;12272;52.426;17.100;2023-01-19T02:14:10;56.30;;;36.13;;
24090;SDS011;12272;52.426;17.100;2023-01-19T02:19:14;45.67;;;29.30;;
24090;SDS011;12272;52.426;17.100;2023-01-19T02:24:21;55.70;;;34.83;;
24090;SDS011;12272;52.426;17.100;2023-01-19T02:29:24;49.33;;;31.87;;
24090;SDS011;12272;52.426;17.100;2023-01-19T02:34:29;53.37;;;32.77;;
24090;SDS011;12272;52.426;17.100;2023-01-19T02:39:34;58.63;;;35.57;;
24090;SDS011;12272;52.426;17.100;2023-01-19T02:44:40;54.47;;;34.40;;
24090;SDS011;12272;52.426;17.100;2023-01-19T02:49:58;51.03;;;31.60;;
24090;SDS011;12272;52.426;17.100;2023-01-19T03:00:30;50.67;;;29.40;;
24090;SDS011;12272;52.426;17.100;2023-01-19T03:11:03;46.43;;;30.37;;
24090;SDS011;12272;52.426;17.100;2023-01-19T03:16:12;52.60;;;33.43;;
24090;SDS011;12272;52.426;17.100;2023-01-19T03:21:35;51.23;;;32.43;;
24090;SDS011;12272;52.426;17.100;2023-01-19T03:26:46;48.37;;;31.90;;
24090;SDS011;12272;52.426;17.100;2023-01-19T03:31:58;44.10;;;28.87;;
24090;SDS011;12272;52.426;17.100;2023-01-19T03:37:07;50.93;;;31.53;;
24090;SDS011;12272;52.426;17.100;2023-01-19T03:42:13;48.13;;;31.40;;
24090;SDS011;12272;52.426;17.100;2023-01-19T03:47:17;50.07;;;30.27;;
24090;SDS011;12272;52.426;17.100;2023-01-19T03:52:28;45.23;;;30.10;;
24090;SDS011;12272;52.426;17.100;2023-01-19T03:57:33;50.37;;;30.73;;
24090;SDS011;12272;52.426;17.100;2023-01-19T04:02:35;45.73;;;29.47;;
24090;SDS011;12272;52.426;17.100;2023-01-19T04:07:38;47.40;;;28.87;;
24090;SDS011;12272;52.426;17.100;2023-01-19T04:12:41;50.27;;;30.27;;
24090;SDS011;12272;52.426;17.100;2023-01-19T04:17:43;46.73;;;28.67;;
24090;SDS011;12272;52.426;17.100;2023-01-19T04:22:46;42.83;;;28.93;;
24090;SDS011;12272;52.426;17.100;2023-01-19T04:27:52;46.53;;;28.73;;
24090;SDS011;12272;52.426;17.100;2023-01-19T04:32:57;44.97;;;27.23;;
24090;SDS011;12272;52.426;17.100;2023-01-19T04:38:01;44.87;;;26.50;;
24090;SDS011;12272;52.426;17.100;2023-01-19T04:43:03;44.77;;;27.20;;
24090;SDS011;12272;52.426;17.100;2023-01-19T04:48:06;35.83;;;22.97;;
24090;SDS011;12272;52.426;17.100;2023-01-19T04:53:09;44.27;;;29.00;;
24090;SDS011;12272;52.426;17.100;2023-01-19T04:58:11;32.70;;;20.70;;
24090;SDS011;12272;52.426;17.100;2023-01-19T05:03:14;30.47;;;21.03;;
24090;SDS011;12272;52.426;17.100;2023-01-19T05:08:17;29.00;;;18.70;;
24090;SDS011;12272;52.426;17.100;2023-01-19T05:13:19;29.33;;;17.47;;
24090;SDS011;12272;52.426;17.100;2023-01-19T05:18:22;35.30;;;21.50;;
24090;SDS011;12272;52.426;17.100;2023-01-19T05:23:24;30.40;;;20.00;;
24090;SDS011;12272;52.426;17.100;2023-01-19T05:28:30;32.07;;;21.33;;
24090;SDS011;12272;52.426;17.100;2023-01-19T05:33:33;34.47;;;21.80;;
24090;SDS011;12272;52.426;17.100;2023-01-19T05:38:36;32.33;;;19.97;;
24090;SDS011;12272;52.426;17.100;2023-01-19T05:43:38;27.37;;;16.87;;
24090;SDS011;12272;52.426;17.100;2023-01-19T05:48:41;34.20;;;20.13;;
24090;SDS011;12272;52.426;17.100;2023-01-19T05:53:43;35.87;;;20.77;;
24090;SDS011;12272;52.426;17.100;2023-01-19T05:58:46;33.30;;;19.83;;
24090;SDS011;12272;52.426;17.100;2023-01-19T06:03:48;32.17;;;19.40;;
24090;SDS011;12272;52.426;17.100;2023-01-19T06:08:51;33.40;;;21.40;;
24090;SDS011;12272;52.426;17.100;2023-01-19T06:13:53;30.47;;;19.57;;
24090;SDS011;12272;52.426;17.100;2023-01-19T06:18:56;33.73;;;20.70;;
24090;SDS011;12272;52.426;17.100;2023-01-19T06:23:59;31.57;;;19.57;;
24090;SDS011;12272;52.426;17.100;2023-01-19T06:29:02;32.60;;;20.40;;
24090;SDS011;12272;52.426;17.100;2023-01-19T06:34:05;33.47;;;19.67;;
24090;SDS011;12272;52.426;17.100;2023-01-19T06:39:08;34.10;;;19.70;;
24090;SDS011;12272;52.426;17.100;2023-01-19T06:44:11;35.00;;;21.10;;
24090;SDS011;12272;52.426;17.100;2023-01-19T06:49:13;31.80;;;19.00;;
24090;SDS011;12272;52.426;17.100;2023-01-19T06:54:16;31.53;;;17.60;;
24090;SDS011;12272;52.426;17.100;2023-01-19T06:59:19;34.50;;;19.03;;
24090;SDS011;12272;52.426;17.100;2023-01-19T07:04:21;26.17;;;16.67;;
24090;SDS011;12272;52.426;17.100;2023-01-19T07:09:24;28.97;;;17.70;;
24090;SDS011;12272;52.426;17.100;2023-01-19T07:14:27;31.73;;;18.03;;
24090;SDS011;12272;52.426;17.100;2023-01-19T07:19:34;33.13;;;18.40;;
24090;SDS011;12272;52.426;17.100;2023-01-19T07:24:37;37.00;;;22.23;;
24090;SDS011;12272;52.426;17.100;2023-01-19T07:29:39;41.40;;;23.33;;
24090;SDS011;12272;52.426;17.100;2023-01-19T07:34:43;31.67;;;19.53;;
24090;SDS011;12272;52.426;17.100;2023-01-19T07:39:46;34.33;;;20.97;;
24090;SDS011;12272;52.426;17.100;2023-01-19T07:44:49;40.20;;;21.63;;
24090;SDS011;12272;52.426;17.100;2023-01-19T07:49:51;39.40;;;23.37;;
24090;SDS011;12272;52.426;17.100;2023-01-19T07:54:54;37.03;;;21.60;;
24090;SDS011;12272;52.426;17.100;2023-01-19T07:59:56;32.23;;;21.23;;
24090;SDS011;12272;52.426;17.100;2023-01-19T08:04:59;34.83;;;21.60;;
24090;SDS011;12272;52.426;17.100;2023-01-19T08:10:02;34.77;;;21.97;;
24090;SDS011;12272;52.426;17.100;2023-01-19T08:15:05;39.87;;;23.70;;
24090;SDS011;12272;52.426;17.100;2023-01-19T08:20:08;35.77;;;21.87;;
24090;SDS011;12272;52.426;17.100;2023-01-19T08:25:12;30.00;;;17.77;;
24090;SDS011;12272;52.426;17.100;2023-01-19T08:30:14;30.73;;;17.97;;
24090;SDS011;12272;52.426;17.100;2023-01-19T08:35:17;27.70;;;18.43;;
24090;SDS011;12272;52.426;17.100;2023-01-19T08:40:20;24.43;;;15.77;;
24090;SDS011;12272;52.426;17.100;2023-01-19T08:45:23;26.93;;;17.40;;
24090;SDS011;12272;52.426;17.100;2023-01-19T08:50:29;30.33;;;18.90;;
24090;SDS011;12272;52.426;17.100;2023-01-19T08:55:36;26.07;;;16.83;;
24090;SDS011;12272;52.426;17.100;2023-01-19T09:00:39;30.50;;;19.10;;
24090;SDS011;12272;52.426;17.100;2023-01-19T09:05:41;27.97;;;18.27;;
24090;SDS011;12272;52.426;17.100;2023-01-19T09:10:48;31.00;;;19.67;;
24090;SDS011;12272;52.426;17.100;2023-01-19T09:15:51;33.93;;;18.67;;
24090;SDS011;12272;52.426;17.100;2023-01-19T09:20:55;26.53;;;17.90;;
24090;SDS011;12272;52.426;17.100;2023-01-19T09:25:59;30.37;;;19.73;;
24090;SDS011;12272;52.426;17.100;2023-01-19T09:31:03;32.10;;;19.77;;
24090;SDS011;12272;52.426;17.100;2023-01-19T09:36:07;33.13;;;21.37;;
24090;SDS011;12272;52.426;17.100;2023-01-19T09:41:15;33.17;;;19.37;;
24090;SDS011;12272;52.426;17.100;2023-01-19T09:51:37;22.30;;;15.60;;
24090;SDS011;12272;52.426;17.100;2023-01-19T09:56:42;21.83;;;14.63;;
24090;SDS011;12272;52.426;17.100;2023-01-19T10:07:08;27.07;;;15.53;;
24090;SDS011;12272;52.426;17.100;2023-01-19T10:17:55;24.10;;;15.13;;
24090;SDS011;12272;52.426;17.100;2023-01-19T10:28:51;23.27;;;14.57;;
24090;SDS011;12272;52.426;17.100;2023-01-19T10:33:58;21.63;;;13.50;;
24090;SDS011;12272;52.426;17.100;2023-01-19T10:39:04;20.23;;;13.67;;
24090;SDS011;12272;52.426;17.100;2023-01-19T10:44:07;24.60;;;14.57;;
24090;SDS011;12272;52.426;17.100;2023-01-19T10:49:25;20.27;;;13.80;;
24090;SDS011;12272;52.426;17.100;2023-01-19T10:54:36;20.73;;;15.37;;
24090;SDS011;12272;52.426;17.100;2023-01-19T10:59:46;25.53;;;16.60;;
24090;SDS011;12272;52.426;17.100;2023-01-19T11:04:57;22.10;;;15.20;;
24090;SDS011;12272;52.426;17.100;2023-01-19T11:15:21;23.13;;;16.63;;
24090;SDS011;12272;52.426;17.100;2023-01-19T11:20:51;19.97;;;12.70;;
24090;SDS011;12272;52.426;17.100;2023-01-19T11:25:57;20.13;;;12.67;;
24090;SDS011;12272;52.426;17.100;2023-01-19T11:31:48;21.67;;;15.50;;
24090;SDS011;12272;52.426;17.100;2023-01-19T11:36:33;22.67;;;15.73;;
24090;SDS011;12272;52.426;17.100;2023-01-19T11:41:37;21.20;;;14.80;;
24090;SDS011;12272;52.426;17.100;2023-01-19T11:46:42;25.77;;;16.90;;
24090;SDS011;12272;52.426;17.100;2023-01-19T11:56:59;25.97;;;16.83;;
24090;SDS011;12272;52.426;17.100;2023-01-19T12:02:03;25.40;;;17.30;;
24090;SDS011;12272;52.426;17.100;2023-01-19T12:07:14;25.77;;;16.40;;
24090;SDS011;12272;52.426;17.100;2023-01-19T12:17:34;21.73;;;15.10;;
24090;SDS011;12272;52.426;17.100;2023-01-19T12:22:43;24.63;;;14.93;;
24090;SDS011;12272;52.426;17.100;2023-01-19T12:27:51;22.60;;;15.37;;
24090;SDS011;12272;52.426;17.100;2023-01-19T12:44:31;23.47;;;16.43;;
24090;SDS011;12272;52.426;17.100;2023-01-19T12:54:30;25.67;;;17.57;;
24090;SDS011;12272;52.426;17.100;2023-01-19T12:59:35;44.57;;;28.10;;
24090;SDS011;12272;52.426;17.100;2023-01-19T13:04:39;32.90;;;20.97;;
24090;SDS011;12272;52.426;17.100;2023-01-19T13:15:42;29.23;;;16.90;;
24090;SDS011;12272;52.426;17.100;2023-01-19T13:20:46;36.37;;;23.03;;
24090;SDS011;12272;52.426;17.100;2023-01-19T13:26:01;22.73;;;17.10;;
24090;SDS011;12272;52.426;17.100;2023-01-19T13:31:08;30.87;;;19.70;;
24090;SDS011;12272;52.426;17.100;2023-01-19T13:36:14;38.57;;;22.73;;
24090;SDS011;12272;52.426;17.100;2023-01-19T13:41:23;30.90;;;21.10;;
24090;SDS011;12272;52.426;17.100;2023-01-19T13:46:28;37.77;;;25.67;;
24090;SDS011;12272;52.426;17.100;2023-01-19T13:51:32;46.90;;;29.37;;
24090;SDS011;12272;52.426;17.100;2023-01-19T13:56:34;48.67;;;29.50;;
24090;SDS011;12272;52.426;17.100;2023-01-19T14:01:37;40.77;;;24.33;;
24090;SDS011;12272;52.426;17.100;2023-01-19T14:06:43;46.00;;;26.90;;
24090;SDS011;12272;52.426;17.100;2023-01-19T14:12:05;33.60;;;20.77;;
24090;SDS011;12272;52.426;17.100;2023-01-19T14:17:16;39.40;;;26.80;;
24090;SDS011;12272;52.426;17.100;2023-01-19T14:22:38;43.13;;;27.43;;
24090;SDS011;12272;52.426;17.100;2023-01-19T14:27:42;41.30;;;28.23;;
24090;SDS011;12272;52.426;17.100;2023-01-19T14:32:45;41.40;;;26.70;;
24090;SDS011;12272;52.426;17.100;2023-01-19T14:37:49;38.57;;;26.07;;
24090;SDS011;12272;52.426;17.100;2023-01-19T14:42:56;27.30;;;19.03;;
24090;SDS011;12272;52.426;17.100;2023-01-19T14:48:14;37.10;;;24.33;;
24090;SDS011;12272;52.426;17.100;2023-01-19T14:53:20;40.77;;;24.23;;
24090;SDS011;12272;52.426;17.100;2023-01-19T14:58:25;42.47;;;27.73;;
24090;SDS011;12272;52.426;17.100;2023-01-19T15:03:30;42.87;;;29.17;;
24090;SDS011;12272;52.426;17.100;2023-01-19T15:08:46;41.63;;;25.43;;
24090;SDS011;12272;52.426;17.100;2023-01-19T15:13:51;37.57;;;24.63;;
24090;SDS011;12272;52.426;17.100;2023-01-19T15:18:53;32.60;;;21.87;;
24090;SDS011;12272;52.426;17.100;2023-01-19T15:23:56;35.13;;;24.20;;
24090;SDS011;12272;52.426;17.100;2023-01-19T15:28:59;47.17;;;28.20;;
24090;SDS011;12272;52.426;17.100;2023-01-19T15:34:02;46.90;;;28.33;;
24090;SDS011;12272;52.426;17.100;2023-01-19T15:39:05;43.20;;;27.47;;
24090;SDS011;12272;52.426;17.100;2023-01-19T15:44:08;38.63;;;26.23;;
24090;SDS011;12272;52.426;17.100;2023-01-19T15:49:12;64.73;;;38.90;;
24090;SDS011;12272;52.426;17.100;2023-01-19T15:54:14;87.37;;;49.90;;
24090;SDS011;12272;52.426;17.100;2023-01-19T15:59:18;94.53;;;51.73;;
24090;SDS011;12272;52.426;17.100;2023-01-19T16:04:20;83.23;;;47.20;;
24090;SDS011;12272;52.426;17.100;2023-01-19T16:09:23;77.27;;;44.50;;
24090;SDS011;12272;52.426;17.100;2023-01-19T16:14:26;67.37;;;39.77;;
24090;SDS011;12272;52.426;17.100;2023-01-19T16:19:28;61.47;;;37.83;;
24090;SDS011;12272;52.426;17.100;2023-01-19T16:24:31;51.77;;;34.27;;
24090;SDS011;12272;52.426;17.100;2023-01-19T16:29:33;57.60;;;35.90;;
24090;SDS011;12272;52.426;17.100;2023-01-19T16:34:36;52.87;;;33.33;;
24090;SDS011;12272;52.426;17.100;2023-01-19T16:39:38;52.10;;;31.37;;
24090;SDS011;12272;52.426;17.100;2023-01-19T16:44:41;83.03;;;55.07;;
24090;SDS011;12272;52.426;17.100;2023-01-19T16:49:44;64.97;;;40.20;;
24090;SDS011;12272;52.426;17.100;2023-01-19T16:54:46;55.90;;;33.87;;
24090;SDS011;12272;52.426;17.100;2023-01-19T16:59:49;51.60;;;32.43;;
24090;SDS011;12272;52.426;17.100;2023-01-19T17:04:52;50.30;;;32.37;;
24090;SDS011;12272;52.426;17.100;2023-01-19T17:09:55;44.03;;;30.87;;
24090;SDS011;12272;52.426;17.100;2023-01-19T17:14:58;45.10;;;30.90;;
24090;SDS011;12272;52.426;17.100;2023-01-19T17:20:01;47.20;;;31.30;;
24090;SDS011;12272;52.426;17.100;2023-01-19T17:25:04;48.47;;;32.27;;
24090;SDS011;12272;52.426;17.100;2023-01-19T17:30:07;47.33;;;30.57;;
24090;SDS011;12272;52.426;17.100;2023-01-19T17:35:11;46.23;;;30.23;;
24090;SDS011;12272;52.426;17.100;2023-01-19T17:40:13;49.77;;;32.63;;
24090;SDS011;12272;52.426;17.100;2023-01-19T17:45:16;55.00;;;32.87;;
24090;SDS011;12272;52.426;17.100;2023-01-19T17:50:19;48.20;;;31.43;;
24090;SDS011;12272;52.426;17.100;2023-01-19T17:55:22;45.70;;;30.60;;
24090;SDS011;12272;52.426;17.100;2023-01-19T18:00:25;56.93;;;37.23;;
24090;SDS011;12272;52.426;17.100;2023-01-19T18:05:27;65.57;;;40.43;;
24090;SDS011;12272;52.426;17.100;2023-01-19T18:10:30;76.07;;;45.13;;
24090;SDS011;12272;52.426;17.100;2023-01-19T18:15:32;72.23;;;42.27;;
24090;SDS011;12272;52.426;17.100;2023-01-19T18:20:35;76.30;;;43.77;;
24090;SDS011;12272;52.426;17.100;2023-01-19T18:25:40;83.13;;;51.40;;
24090;SDS011;12272;52.426;17.100;2023-01-19T18:30:44;93.47;;;59.27;;
24090;SDS011;12272;52.426;17.100;2023-01-19T18:35:46;75.13;;;44.40;;
24090;SDS011;12272;52.426;17.100;2023-01-19T18:40:58;82.10;;;48.80;;
24090;SDS011;12272;52.426;17.100;2023-01-19T18:46:07;77.70;;;48.67;;
24090;SDS011;12272;52.426;17.100;2023-01-19T18:51:12;75.17;;;47.23;;
24090;SDS011;12272;52.426;17.100;2023-01-19T18:56:16;68.20;;;42.87;;
24090;SDS011;12272;52.426;17.100;2023-01-19T19:01:23;129.70;;;71.37;;
24090;SDS011;12272;52.426;17.100;2023-01-19T19:06:33;101.40;;;56.70;;
24090;SDS011;12272;52.426;17.100;2023-01-19T19:11:37;172.33;;;115.57;;
24090;SDS011;12272;52.426;17.100;2023-01-19T19:16:39;161.47;;;94.87;;
24090;SDS011;12272;52.426;17.100;2023-01-19T19:21:42;159.77;;;85.87;;
24090;SDS011;12272;52.426;17.100;2023-01-19T19:26:45;150.20;;;81.33;;
24090;SDS011;12272;52.426;17.100;2023-01-19T19:31:48;150.07;;;80.33;;
24090;SDS011;12272;52.426;17.100;2023-01-19T19:36:51;145.77;;;75.60;;
24090;SDS011;12272;52.426;17.100;2023-01-19T19:41:54;188.77;;;100.80;;
24090;SDS011;12272;52.426;17.100;2023-01-19T19:46:56;214.67;;;113.00;;
24090;SDS011;12272;52.426;17.100;2023-01-19T19:51:59;59.03;;;30.30;;
24090;SDS011;12272;52.426;17.100;2023-01-19T19:57:02;58.00;;;30.73;;
24090;SDS011;12272;52.426;17.100;2023-01-19T20:02:05;81.40;;;42.43;;
24090;SDS011;12272;52.426;17.100;2023-01-19T20:07:08;82.07;;;44.70;;
24090;SDS011;12272;52.426;17.100;2023-01-19T20:12:11;75.13;;;41.00;;
24090;SDS011;12272;52.426;17.100;2023-01-19T20:17:14;72.47;;;40.73;;
24090;SDS011;12272;52.426;17.100;2023-01-19T20:22:17;148.17;;;57.20;;
24090;SDS011;12272;52.426;17.100;2023-01-19T20:27:20;105.87;;;55.33;;
24090;SDS011;12272;52.426;17.100;2023-01-19T20:32:23;91.47;;;53.90;;
24090;SDS011;12272;52.426;17.100;2023-01-19T20:37:26;104.23;;;57.97;;
24090;SDS011;12272;52.426;17.100;2023-01-19T20:42:28;92.83;;;49.90;;
24090;SDS011;12272;52.426;17.100;2023-01-19T20:47:31;104.10;;;47.57;;
24090;SDS011;12272;52.426;17.100;2023-01-19T20:52:34;118.90;;;52.87;;
24090;SDS011;12272;52.426;17.100;2023-01-19T20:57:37;115.47;;;67.17;;
24090;SDS011;12272;52.426;17.100;2023-01-19T21:02:39;110.73;;;62.87;;
24090;SDS011;12272;52.426;17.100;2023-01-19T21:07:42;104.97;;;59.07;;
24090;SDS011;12272;52.426;17.100;2023-01-19T21:12:45;98.07;;;57.33;;
24090;SDS011;12272;52.426;17.100;2023-01-19T21:17:48;97.87;;;57.20;;
24090;SDS011;12272;52.426;17.100;2023-01-19T21:22:51;132.53;;;68.50;;
24090;SDS011;12272;52.426;17.100;2023-01-19T21:28:09;136.00;;;71.33;;
24090;SDS011;12272;52.426;17.100;2023-01-19T21:33:11;123.73;;;65.33;;
24090;SDS011;12272;52.426;17.100;2023-01-19T21:38:14;128.67;;;67.00;;
24090;SDS011;12272;52.426;17.100;2023-01-19T21:43:17;131.07;;;72.17;;
24090;SDS011;12272;52.426;17.100;2023-01-19T21:48:21;146.73;;;74.93;;
24090;SDS011;12272;52.426;17.100;2023-01-19T21:53:23;138.07;;;76.00;;
24090;SDS011;12272;52.426;17.100;2023-01-19T21:58:26;126.40;;;69.17;;
24090;SDS011;12272;52.426;17.100;2023-01-19T22:03:29;107.17;;;62.53;;
24090;SDS011;12272;52.426;17.100;2023-01-19T22:08:32;120.83;;;63.17;;
24090;SDS011;12272;52.426;17.100;2023-01-19T22:13:35;127.67;;;72.60;;
24090;SDS011;12272;52.426;17.100;2023-01-19T22:18:40;107.73;;;62.60;;
24090;SDS011;12272;52.426;17.100;2023-01-19T22:23:48;104.63;;;57.60;;
24090;SDS011;12272;52.426;17.100;2023-01-19T22:28:56;85.83;;;48.77;;
24090;SDS011;12272;52.426;17.100;2023-01-19T22:34:00;83.90;;;46.63;;
24090;SDS011;12272;52.426;17.100;2023-01-19T22:39:03;75.87;;;44.07;;
24090;SDS011;12272;52.426;17.100;2023-01-19T22:44:10;92.17;;;45.47;;
24090;SDS011;12272;52.426;17.100;2023-01-19T22:49:15;93.10;;;48.00;;
24090;SDS011;12272;52.426;17.100;2023-01-19T22:54:19;96.07;;;49.30;;
24090;SDS011;12272;52.426;17.100;2023-01-19T22:59:23;90.93;;;44.53;;
24090;SDS011;12272;52.426;17.100;2023-01-19T23:04:26;87.47;;;47.83;;
24090;SDS011;12272;52.426;17.100;2023-01-19T23:09:28;83.10;;;45.53;;
24090;SDS011;12272;52.426;17.100;2023-01-19T23:14:31;75.97;;;43.53;;
24090;SDS011;12272;52.426;17.100;2023-01-19T23:19:34;77.63;;;43.23;;
24090;SDS011;12272;52.426;17.100;2023-01-19T23:24:36;70.10;;;41.80;;
24090;SDS011;12272;52.426;17.100;2023-01-19T23:29:39;76.23;;;38.40;;
24090;SDS011;12272;52.426;17.100;2023-01-19T23:34:41;72.07;;;40.33;;
24090;SDS011;12272;52.426;17.100;2023-01-19T23:39:44;81.13;;;43.80;;
24090;SDS011;12272;52.426;17.100;2023-01-19T23:44:47;80.23;;;44.67;;
24090;SDS011;12272;52.426;17.100;2023-01-19T23:49:49;84.27;;;45.57;;
24090;SDS011;12272;52.426;17.100;2023-01-19T23:54:52;77.37;;;41.80;;
24090;SDS011;12272;52.426;17.100;2023-01-19T23:59:54;99.40;;;48.20;;
